createdAt,value
2024-05-09T00:00:39.244Z,100.00
2024-05-09T00:03:08.607Z,100.00
2024-05-09T00:05:37.015Z,100.00
2024-05-09T00:08:04.578Z,100.00
2024-05-09T00:10:36.436Z,100.00
2024-05-09T00:13:06.512Z,100.00
2024-05-09T00:15:34.090Z,100.00
2024-05-09T00:18:01.748Z,100.00
2024-05-09T00:20:36.809Z,100.00
2024-05-09T00:23:07.574Z,100.00
2024-05-09T00:25:35.566Z,100.00
2024-05-09T00:28:02.776Z,100.00
2024-05-09T00:30:34.474Z,100.00
2024-05-09T00:33:07.775Z,100.00
2024-05-09T00:35:35.989Z,100.00
2024-05-09T00:38:02.942Z,100.00
2024-05-09T00:40:40.985Z,100.00
2024-05-09T00:43:10.680Z,100.00
2024-05-09T00:45:37.712Z,100.00
2024-05-09T00:48:07.975Z,100.00
2024-05-09T00:50:40.471Z,100.00
2024-05-09T00:53:10.376Z,100.00
2024-05-09T00:55:39.016Z,100.00
2024-05-09T00:58:10.801Z,100.00
2024-05-09T01:00:41.563Z,100.00
2024-05-09T01:03:11.504Z,100.00
2024-05-09T01:05:46.058Z,100.00
2024-05-09T01:08:13.435Z,100.00
2024-05-09T01:10:43.897Z,100.00
2024-05-09T01:13:12.092Z,100.00
2024-05-09T01:15:38.816Z,100.00
2024-05-09T01:18:15.057Z,100.00
2024-05-09T01:20:44.489Z,100.00
2024-05-09T01:23:14.495Z,100.00
2024-05-09T01:25:42.974Z,100.00
2024-05-09T01:28:09.813Z,100.00
2024-05-09T01:30:37.858Z,100.00
2024-05-09T01:33:07.766Z,100.00
2024-05-09T01:35:36.558Z,100.00
2024-05-09T01:38:03.740Z,100.00
2024-05-09T01:40:37.330Z,100.00
2024-05-09T01:43:07.209Z,100.00
2024-05-09T01:45:34.103Z,100.00
2024-05-09T01:48:01.448Z,100.00
2024-05-09T01:50:37.954Z,100.00
2024-05-09T01:53:09.371Z,100.00
2024-05-09T01:55:36.373Z,100.00
2024-05-09T01:58:03.154Z,100.00
2024-05-09T02:00:38.640Z,100.00
2024-05-09T02:03:11.024Z,100.00
2024-05-09T02:05:40.258Z,100.00
2024-05-09T02:08:07.341Z,100.00
2024-05-09T02:10:34.176Z,100.00
2024-05-09T02:13:01.269Z,100.00
2024-05-09T02:15:28.027Z,100.00
2024-05-09T02:17:55.325Z,100.00
2024-05-09T02:20:30.616Z,100.00
2024-05-09T02:23:04.147Z,100.00
2024-05-09T02:25:31.783Z,100.00
2024-05-09T02:27:58.521Z,100.00
2024-05-09T02:30:35.108Z,100.00
2024-05-09T02:33:06.684Z,100.00
2024-05-09T02:35:33.743Z,100.00
2024-05-09T02:38:00.880Z,100.00
2024-05-09T02:40:35.801Z,100.00
2024-05-09T02:43:05.191Z,100.00
2024-05-09T02:45:32.154Z,100.00
2024-05-09T02:47:59.322Z,100.00
2024-05-09T02:50:34.309Z,100.00
2024-05-09T02:53:05.948Z,100.00
2024-05-09T02:55:32.964Z,100.00
2024-05-09T02:57:59.775Z,100.00
2024-05-09T03:00:34.834Z,100.00
2024-05-09T03:03:12.745Z,100.00
2024-05-09T03:05:41.883Z,100.00
2024-05-09T03:08:09.190Z,100.00
2024-05-09T03:10:41.927Z,100.00
2024-05-09T03:13:14.654Z,100.00
2024-05-09T03:15:43.144Z,100.00
2024-05-09T03:18:10.962Z,100.00
2024-05-09T03:20:39.385Z,100.00
2024-05-09T03:23:08.892Z,100.00
2024-05-09T03:25:36.692Z,100.00
2024-05-09T03:28:03.764Z,100.00
2024-05-09T03:30:39.427Z,100.00
2024-05-09T03:33:19.841Z,100.00
2024-05-09T03:35:48.805Z,100.00
2024-05-09T03:38:16.246Z,100.00
2024-05-09T03:40:47.104Z,100.00
2024-05-09T03:43:14.579Z,100.00
2024-05-09T03:45:42.266Z,100.00
2024-05-09T03:48:09.166Z,100.00
2024-05-09T03:50:36.974Z,100.00
2024-05-09T03:53:04.806Z,100.00
2024-05-09T03:55:31.557Z,100.00
2024-05-09T03:57:58.523Z,100.00
2024-05-09T04:00:31.740Z,100.00
2024-05-09T04:03:06.992Z,100.00
2024-05-09T04:05:35.935Z,100.00
2024-05-09T04:08:02.934Z,100.00
2024-05-09T04:10:33.680Z,100.00
2024-05-09T04:13:02.384Z,100.00
2024-05-09T04:15:29.455Z,100.00
2024-05-09T04:17:56.637Z,100.00
2024-05-09T04:20:33.917Z,100.00
2024-05-09T04:23:07.088Z,100.00
2024-05-09T04:25:34.891Z,100.00
2024-05-09T04:28:01.798Z,100.00
2024-05-09T04:30:37.417Z,100.00
2024-05-09T04:33:09.104Z,100.00
2024-05-09T04:35:38.087Z,100.00
2024-05-09T04:38:05.743Z,100.00
2024-05-09T04:40:35.797Z,100.00
2024-05-09T04:43:13.589Z,100.00
2024-05-09T04:45:40.758Z,100.00
2024-05-09T04:48:08.111Z,100.00
2024-05-09T04:50:38.313Z,100.00
2024-05-09T04:53:08.460Z,100.00
2024-05-09T04:55:36.881Z,100.00
2024-05-09T04:58:03.734Z,100.00
2024-05-09T05:00:36.325Z,100.00
2024-05-09T05:03:10.786Z,100.00
2024-05-09T05:05:41.302Z,100.00
2024-05-09T05:08:16.719Z,100.00
2024-05-09T05:10:44.644Z,100.00
2024-05-09T05:13:22.823Z,100.00
2024-05-09T05:15:57.419Z,100.00
2024-05-09T05:18:26.197Z,100.00
2024-05-09T05:20:53.552Z,100.00
2024-05-09T05:23:21.344Z,100.00
2024-05-09T05:25:49.599Z,100.00
2024-05-09T05:28:17.140Z,100.00
2024-05-09T05:30:43.866Z,100.00
2024-05-09T05:33:12.015Z,100.00
2024-05-09T05:35:39.490Z,100.00
2024-05-09T05:38:06.655Z,100.00
2024-05-09T05:40:37.065Z,100.00
2024-05-09T05:43:06.196Z,100.00
2024-05-09T05:45:32.892Z,100.00
2024-05-09T05:48:00.438Z,100.00
2024-05-09T05:50:34.614Z,100.00
2024-05-09T05:53:05.890Z,100.00
2024-05-09T05:55:32.828Z,100.00
2024-05-09T05:58:00.715Z,100.00
2024-05-09T06:00:34.480Z,100.00
2024-05-09T06:03:05.423Z,100.00
2024-05-09T06:05:32.732Z,100.00
2024-05-09T06:07:59.800Z,100.00
2024-05-09T06:10:36.755Z,100.00
2024-05-09T06:13:06.221Z,100.00
2024-05-09T06:15:32.946Z,100.00
2024-05-09T06:17:59.754Z,100.00
2024-05-09T06:20:34.854Z,100.00
2024-05-09T06:23:04.770Z,100.00
2024-05-09T06:25:32.166Z,100.00
2024-05-09T06:28:00.737Z,100.00
2024-05-09T06:30:36.815Z,100.00
2024-05-09T06:33:07.991Z,100.00
2024-05-09T06:35:35.494Z,100.00
2024-05-09T06:38:02.643Z,100.00
2024-05-09T06:40:37.130Z,100.00
2024-05-09T06:43:14.950Z,100.00
2024-05-09T06:45:43.350Z,100.00
2024-05-09T07:03:11.418Z,100.00
2024-05-09T07:05:39.895Z,100.00
2024-05-09T07:08:07.161Z,100.00
2024-05-09T07:10:36.290Z,100.00
2024-05-09T07:13:08.066Z,100.00
2024-05-09T07:15:34.781Z,100.00
2024-05-09T07:18:01.597Z,100.00
2024-05-09T07:20:34.413Z,100.00
2024-05-09T07:23:05.303Z,100.00
2024-05-09T07:25:32.271Z,100.00
2024-05-09T07:27:59.059Z,100.00
2024-05-09T07:30:32.878Z,100.00
2024-05-09T07:33:02.305Z,100.00
2024-05-09T07:35:30.041Z,100.00
2024-05-09T07:37:57.126Z,100.00
2024-05-09T07:40:32.746Z,100.00
2024-05-09T07:43:08.486Z,100.00
2024-05-09T07:52:32.583Z,100.00
2024-05-09T07:55:54.077Z,100.00
2024-05-09T07:58:22.463Z,100.00
2024-05-09T08:00:49.323Z,100.00
2024-05-09T08:03:16.371Z,100.00
2024-05-09T08:05:43.299Z,100.00
2024-05-09T08:08:11.391Z,100.00
2024-05-09T08:10:38.195Z,100.00
2024-05-09T08:13:05.258Z,100.00
2024-05-09T08:15:32.235Z,100.00
2024-05-09T08:18:00.178Z,100.00
2024-05-09T08:20:31.273Z,100.00
2024-05-09T08:23:01.810Z,100.00
2024-05-09T08:25:28.713Z,100.00
2024-05-09T08:27:55.460Z,100.00
2024-05-09T08:30:30.039Z,100.00
2024-05-09T08:33:04.714Z,100.00
2024-05-09T08:35:32.195Z,100.00
2024-05-09T08:37:59.225Z,100.00
2024-05-09T08:40:33.510Z,100.00
2024-05-09T08:43:06.895Z,100.00
2024-05-09T08:45:35.430Z,100.00
2024-05-09T08:48:09.909Z,100.00
2024-05-09T08:50:40.377Z,100.00
2024-05-09T08:53:08.737Z,100.00
2024-05-09T08:55:40.215Z,100.00
2024-05-09T08:58:12.689Z,100.00
2024-05-09T09:00:42.119Z,100.00
2024-05-09T09:03:10.846Z,100.00
2024-05-09T09:05:40.042Z,100.00
2024-05-09T09:08:08.695Z,100.00
2024-05-09T09:10:35.938Z,100.00
2024-05-09T09:13:09.842Z,100.00
2024-05-09T09:15:50.291Z,100.00
2024-05-09T09:18:18.554Z,100.00
2024-05-09T09:20:45.728Z,100.00
2024-05-09T09:23:12.651Z,98.62
2024-05-09T09:25:40.685Z,99.35
2024-05-09T09:28:08.195Z,98.65
2024-05-09T09:30:37.892Z,99.87
2024-05-09T09:33:11.992Z,93.46
2024-05-09T09:35:41.996Z,94.83
2024-05-09T09:38:10.636Z,93.85
2024-05-09T09:40:44.964Z,95.58
2024-05-09T09:43:19.725Z,92.71
2024-05-09T09:45:50.038Z,86.94
2024-05-09T09:48:16.985Z,88.57
2024-05-09T09:50:45.413Z,87.57
2024-05-09T09:53:13.075Z,89.00
2024-05-09T09:55:41.819Z,84.76
2024-05-09T09:58:13.222Z,83.52
2024-05-09T10:00:41.360Z,80.21
2024-05-09T10:03:08.319Z,76.72
2024-05-09T10:05:35.535Z,78.78
2024-05-09T10:08:07.417Z,78.71
2024-05-09T10:10:35.644Z,77.62
2024-05-09T10:13:09.145Z,80.58
2024-05-09T10:15:46.472Z,77.94
2024-05-09T10:18:13.889Z,84.74
2024-05-09T10:20:49.372Z,80.83
2024-05-09T10:23:44.262Z,82.84
2024-05-09T10:26:10.973Z,82.40
2024-05-09T10:28:44.076Z,83.08
2024-05-09T10:31:13.392Z,83.08
2024-05-09T10:33:52.131Z,82.67
2024-05-09T10:36:23.750Z,82.52
2024-05-09T10:38:52.090Z,83.24
2024-05-09T10:41:20.165Z,83.28
2024-05-09T10:43:47.859Z,79.83
2024-05-09T10:46:15.107Z,79.37
2024-05-09T10:48:44.387Z,79.91
2024-05-09T10:51:11.783Z,82.01
2024-05-09T10:53:42.612Z,77.08
2024-05-09T10:56:10.050Z,78.09
2024-05-09T10:58:37.144Z,78.21
2024-05-09T11:01:07.020Z,82.17
2024-05-09T11:03:35.529Z,82.56
2024-05-09T11:06:02.833Z,82.92
2024-05-09T11:08:32.134Z,83.14
2024-05-09T11:11:03.274Z,84.93
2024-05-09T11:13:31.422Z,89.85
2024-05-09T11:15:59.347Z,87.93
2024-05-09T11:18:30.420Z,88.80
2024-05-09T11:21:00.063Z,87.54
2024-05-09T11:23:30.096Z,87.00
2024-05-09T11:25:58.695Z,89.83
2024-05-09T11:28:28.802Z,88.51
2024-05-09T11:31:09.118Z,86.31
2024-05-09T11:33:41.568Z,89.15
2024-05-09T11:36:09.643Z,86.92
2024-05-09T11:38:36.496Z,87.17
2024-05-09T11:41:05.352Z,87.58
2024-05-09T11:43:32.524Z,85.94
2024-05-09T11:45:59.772Z,85.92
2024-05-09T11:48:27.044Z,86.60
2024-05-09T11:50:55.418Z,84.42
2024-05-09T11:53:22.572Z,87.32
2024-05-09T11:55:49.375Z,84.88
2024-05-09T11:58:18.168Z,85.54
2024-05-09T12:00:45.821Z,85.55
2024-05-09T12:03:12.946Z,85.62
2024-05-09T12:05:39.841Z,86.59
2024-05-09T12:08:07.436Z,89.12
2024-05-09T12:10:36.047Z,85.40
2024-05-09T12:13:05.807Z,85.34
2024-05-09T12:15:36.424Z,82.50
2024-05-09T12:18:04.721Z,78.21
2024-05-09T12:20:37.213Z,81.51
2024-05-09T12:23:07.160Z,71.20
2024-05-09T12:25:34.430Z,75.01
2024-05-09T12:28:01.376Z,68.15
2024-05-09T12:30:35.850Z,68.81
2024-05-09T12:33:08.162Z,74.49
2024-05-09T12:35:35.210Z,66.43
2024-05-09T12:38:02.203Z,69.55
2024-05-09T12:40:35.760Z,69.72
2024-05-09T12:43:08.877Z,71.48
2024-05-09T12:45:37.000Z,72.20
2024-05-09T12:48:07.115Z,70.35
2024-05-09T12:50:34.792Z,73.65
2024-05-09T12:53:03.186Z,76.30
2024-05-09T12:55:37.136Z,73.11
2024-05-09T12:58:11.523Z,74.27
2024-05-09T13:00:38.343Z,77.07
2024-05-09T13:03:05.482Z,77.05
2024-05-09T13:05:32.510Z,78.70
2024-05-09T13:08:00.685Z,76.95
2024-05-09T13:10:32.148Z,77.82
2024-05-09T13:13:01.343Z,76.06
2024-05-09T13:15:30.158Z,75.33
2024-05-09T13:18:00.512Z,77.47
2024-05-09T13:20:33.598Z,72.43
2024-05-09T13:23:04.142Z,71.46
2024-05-09T13:25:31.096Z,77.68
2024-05-09T13:27:58.020Z,76.03
2024-05-09T13:30:34.326Z,75.38
2024-05-09T13:33:07.039Z,74.62
2024-05-09T13:35:35.660Z,75.62
2024-05-09T13:38:04.355Z,80.88
2024-05-09T13:40:34.645Z,75.03
2024-05-09T13:43:06.497Z,75.45
2024-05-09T13:45:34.334Z,76.32
2024-05-09T13:48:02.627Z,75.99
2024-05-09T13:50:35.904Z,75.26
2024-05-09T13:53:06.210Z,72.69
2024-05-09T13:55:34.350Z,74.15
2024-05-09T13:58:01.476Z,73.94
2024-05-09T14:00:41.694Z,74.62
2024-05-09T14:03:14.041Z,75.28
2024-05-09T14:05:41.415Z,81.38
2024-05-09T14:08:08.705Z,76.02
2024-05-09T14:10:35.727Z,74.44
2024-05-09T14:13:02.671Z,76.01
2024-05-09T14:15:29.622Z,80.04
2024-05-09T14:17:56.453Z,77.75
2024-05-09T14:20:30.403Z,76.59
2024-05-09T14:23:00.196Z,80.24
2024-05-09T14:25:35.107Z,78.48
2024-05-09T14:28:04.080Z,81.67
2024-05-09T14:30:36.649Z,79.84
2024-05-09T14:33:06.530Z,78.28
2024-05-09T14:35:34.318Z,77.61
2024-05-09T14:38:02.865Z,78.53
2024-05-09T14:40:40.242Z,80.68
2024-05-09T14:43:11.510Z,82.94
2024-05-09T14:45:38.892Z,82.76
2024-05-09T14:48:06.264Z,86.88
2024-05-09T14:50:37.193Z,86.54
2024-05-09T14:53:07.742Z,86.95
2024-05-09T14:55:40.018Z,88.92
2024-05-09T14:58:09.097Z,88.98
2024-05-09T15:00:44.758Z,86.60
2024-05-09T15:03:15.144Z,88.91
2024-05-09T15:05:42.083Z,88.94
2024-05-09T15:08:09.086Z,87.93
2024-05-09T15:10:37.115Z,89.31
2024-05-09T15:13:06.058Z,89.31
2024-05-09T15:15:34.218Z,90.07
2024-05-09T15:18:01.381Z,91.17
2024-05-09T15:20:34.548Z,92.38
2024-05-09T15:23:04.594Z,92.53
2024-05-09T15:25:31.515Z,94.39
2024-05-09T15:27:58.406Z,93.16
2024-05-09T15:32:57.469Z,97.23
2024-05-09T15:35:25.393Z,97.04
2024-05-09T15:37:53.381Z,97.81
2024-05-09T15:40:30.893Z,97.00
2024-05-09T15:43:06.519Z,97.24
2024-05-09T15:45:35.295Z,98.19
2024-05-09T15:48:04.660Z,96.42
2024-05-09T15:50:38.365Z,94.78
2024-05-09T15:53:10.393Z,94.35
2024-05-09T15:55:37.798Z,98.47
2024-05-09T15:58:07.080Z,95.70
2024-05-09T16:00:39.959Z,94.38
2024-05-09T16:03:11.769Z,97.37
2024-05-09T16:05:41.483Z,98.71
2024-05-09T16:08:09.732Z,98.96
2024-05-09T16:10:43.987Z,99.02
2024-05-09T16:13:12.879Z,96.50
2024-05-09T16:15:41.412Z,97.78
2024-05-09T16:18:08.558Z,100.00
2024-05-09T16:20:40.401Z,100.00
2024-05-09T16:23:10.755Z,100.00
2024-05-09T16:25:46.308Z,100.00
2024-05-09T16:28:14.524Z,100.00
2024-05-09T16:30:42.901Z,100.00
2024-05-09T16:33:12.013Z,100.00
2024-05-09T16:35:40.600Z,100.00
2024-05-09T16:38:08.560Z,100.00
2024-05-09T16:40:40.143Z,100.00
2024-05-09T16:43:10.461Z,100.00
2024-05-09T16:45:46.312Z,100.00
2024-05-09T16:48:14.841Z,100.00
2024-05-09T16:50:43.087Z,100.00
2024-05-09T16:53:12.071Z,100.00
2024-05-09T16:55:41.652Z,100.00
2024-05-09T16:58:12.283Z,100.00
2024-05-09T17:00:43.629Z,100.00
2024-05-09T17:03:14.442Z,100.00
2024-05-09T17:05:42.903Z,100.00
2024-05-09T17:08:11.703Z,100.00
2024-05-09T17:10:38.602Z,100.00
2024-05-09T17:13:07.499Z,100.00
2024-05-09T17:15:37.120Z,100.00
2024-05-09T17:18:04.701Z,100.00
2024-05-09T17:20:35.168Z,100.00
2024-05-09T17:23:05.774Z,100.00
2024-05-09T17:25:33.320Z,100.00
2024-05-09T17:28:06.231Z,100.00
2024-05-09T17:30:36.863Z,100.00
2024-05-09T17:33:06.740Z,100.00
2024-05-09T17:35:35.234Z,100.00
2024-05-09T17:38:02.106Z,100.00
2024-05-09T17:40:33.720Z,100.00
2024-05-09T17:43:04.697Z,100.00
2024-05-09T17:45:32.288Z,100.00
2024-05-09T17:47:59.643Z,100.00
2024-05-09T17:50:33.446Z,100.00
2024-05-09T17:53:03.155Z,100.00
2024-05-09T17:55:30.125Z,100.00
2024-05-09T17:57:57.405Z,100.00
2024-05-09T18:00:33.535Z,100.00
2024-05-09T18:03:06.734Z,100.00
2024-05-09T18:05:36.375Z,100.00
2024-05-09T18:08:04.029Z,100.00
2024-05-09T18:10:36.853Z,100.00
2024-05-09T18:13:08.444Z,100.00
2024-05-09T18:15:37.593Z,100.00
2024-05-09T18:18:16.528Z,100.00
2024-05-09T18:21:18.451Z,100.00
2024-05-09T18:23:46.668Z,100.00
2024-05-09T18:26:14.819Z,100.00
2024-05-09T18:28:42.831Z,100.00
2024-05-09T18:31:10.852Z,100.00
2024-05-09T18:33:39.042Z,100.00
2024-05-09T18:36:07.515Z,100.00
2024-05-09T18:38:35.751Z,100.00
2024-05-09T18:41:04.401Z,100.00
2024-05-09T18:43:38.548Z,100.00
2024-05-09T18:46:13.488Z,100.00
2024-05-09T18:48:43.074Z,100.00
2024-05-09T18:51:11.854Z,100.00
2024-05-09T18:53:40.829Z,100.00
2024-05-09T18:56:12.117Z,100.00
2024-05-09T18:58:39.878Z,100.00
2024-05-09T19:01:09.257Z,100.00
2024-05-09T19:03:40.055Z,100.00
2024-05-09T19:06:08.048Z,100.00
2024-05-09T19:08:40.446Z,100.00
2024-05-09T19:11:08.816Z,100.00
2024-05-09T19:13:36.947Z,100.00
2024-05-09T19:16:05.602Z,100.00
2024-05-09T19:18:34.688Z,100.00
2024-05-09T19:21:02.683Z,100.00
2024-05-09T19:23:32.625Z,100.00
2024-05-09T19:26:03.648Z,100.00
2024-05-09T19:28:32.162Z,100.00
2024-05-09T19:31:01.293Z,100.00
2024-05-09T19:33:31.879Z,100.00
2024-05-09T19:35:59.893Z,100.00
2024-05-09T19:38:27.931Z,100.00
2024-05-09T19:40:57.951Z,100.00
2024-05-09T19:43:26.006Z,100.00
2024-05-09T19:45:56.220Z,100.00
2024-05-09T19:48:24.528Z,100.00
2024-05-09T19:50:55.294Z,100.00
2024-05-09T19:53:22.223Z,100.00
2024-05-09T19:55:52.549Z,100.00
2024-05-09T19:58:19.474Z,100.00
2024-05-09T20:00:46.282Z,100.00
2024-05-09T20:03:15.749Z,100.00
2024-05-09T20:05:46.719Z,100.00
2024-05-09T20:08:17.332Z,100.00
2024-05-09T20:10:54.055Z,100.00
2024-05-09T20:13:21.057Z,100.00
2024-05-09T20:15:49.322Z,100.00
2024-05-09T20:18:20.542Z,100.00
2024-05-09T20:20:49.850Z,100.00
2024-05-09T20:23:19.509Z,100.00
2024-05-09T20:25:50.643Z,100.00
2024-05-09T20:28:18.643Z,100.00
2024-05-09T20:30:47.974Z,100.00
2024-05-09T20:33:15.946Z,100.00
2024-05-09T20:35:42.921Z,100.00
2024-05-09T20:38:13.310Z,100.00
2024-05-09T20:40:40.422Z,100.00
2024-05-09T20:43:13.999Z,100.00
2024-05-09T20:45:42.225Z,100.00
2024-05-09T20:48:13.319Z,100.00
2024-05-09T20:50:42.851Z,100.00
2024-05-09T20:53:19.356Z,100.00
2024-05-09T20:55:47.659Z,100.00
2024-05-09T20:58:16.146Z,100.00
2024-05-09T21:00:45.977Z,100.00
2024-05-09T21:03:16.338Z,100.00
2024-05-09T21:05:46.342Z,100.00
2024-05-09T21:08:14.508Z,100.00
2024-05-09T21:10:42.820Z,100.00
2024-05-09T21:13:11.294Z,100.00
2024-05-09T21:15:39.530Z,100.00
2024-05-09T21:18:08.835Z,100.00
2024-05-09T21:20:37.718Z,100.00
2024-05-09T21:23:06.055Z,100.00
2024-05-09T21:25:34.162Z,100.00
2024-05-09T21:28:03.094Z,100.00
2024-05-09T21:30:40.371Z,100.00
2024-05-09T21:33:13.738Z,100.00
2024-05-09T21:35:46.109Z,100.00
2024-05-09T21:38:14.991Z,100.00
2024-05-09T21:40:43.954Z,100.00
2024-05-09T21:43:12.266Z,100.00
2024-05-09T21:45:40.323Z,100.00
2024-05-09T21:48:11.312Z,100.00
2024-05-09T21:50:41.664Z,100.00
2024-05-09T21:53:14.045Z,100.00
2024-05-09T21:55:46.519Z,100.00
2024-05-09T21:58:15.121Z,100.00
2024-05-09T22:00:45.637Z,100.00
2024-05-09T22:03:14.130Z,100.00
2024-05-09T22:05:44.431Z,100.00
2024-05-09T22:08:12.659Z,100.00
2024-05-09T22:10:40.630Z,100.00
2024-05-09T22:13:11.140Z,100.00
2024-05-09T22:15:41.496Z,100.00
2024-05-09T22:18:11.585Z,100.00
2024-05-09T22:20:47.758Z,100.00
2024-05-09T22:23:16.112Z,100.00
2024-05-09T22:25:44.286Z,100.00
2024-05-09T22:28:17.534Z,100.00
2024-05-09T22:30:47.257Z,100.00
2024-05-09T22:33:15.993Z,100.00
2024-05-09T22:35:44.381Z,100.00
2024-05-09T22:38:11.458Z,100.00
2024-05-09T22:40:47.119Z,100.00
2024-05-09T22:43:23.746Z,100.00
2024-05-09T22:45:57.033Z,100.00
2024-05-09T22:48:25.805Z,100.00
2024-05-09T22:50:54.947Z,100.00
2024-05-09T22:53:24.937Z,100.00
2024-05-09T22:55:52.958Z,100.00
2024-05-09T22:58:21.641Z,100.00
2024-05-09T23:00:49.711Z,100.00
2024-05-09T23:03:21.115Z,100.00
2024-05-09T23:05:50.022Z,100.00
2024-05-09T23:08:18.222Z,100.00
2024-05-09T23:10:46.476Z,100.00
2024-05-09T23:13:14.404Z,100.00
2024-05-09T23:15:42.368Z,100.00
2024-05-09T23:18:11.393Z,100.00
2024-05-09T23:20:40.237Z,100.00
2024-05-09T23:23:10.630Z,100.00
2024-05-09T23:25:41.802Z,100.00
2024-05-09T23:28:10.986Z,100.00
2024-05-09T23:30:40.880Z,100.00
2024-05-09T23:33:14.182Z,100.00
2024-05-09T23:35:44.316Z,100.00
2024-05-09T23:38:13.456Z,100.00
2024-05-09T23:40:42.922Z,100.00
2024-05-09T23:43:12.515Z,100.00
2024-05-09T23:45:42.497Z,100.00
2024-05-09T23:48:11.159Z,100.00
2024-05-09T23:50:41.024Z,100.00
2024-05-09T23:53:11.401Z,100.00
2024-05-09T23:55:39.635Z,100.00
2024-05-09T23:58:09.943Z,100.00
